DSV weather

Dansville Municipal Airport
Dansville, New York, United States

Public forecast

Using degrees Fahrenheit for public forecast. Weather courtesy of forecast.io.

Current aviation weather report (METAR) for Dansville Municipal Airport

Retrieved 2019/10/14 10:54 UTC (57 minutes ago):

KDSV 141054Z AUTO 16003KT 10SM SCT110 09/04 A2991 RMK AO2 SLP137 T00890044

Closest aviation forecast (TAF) to Dansville Municipal Airport

Closest forecast is Greater Rochester International Airport, 33.0 nm (61.0 km) N. Retrieved 2019/10/14 06:22 UTC (5 hours ago):

TAF KROC 140520Z 1406/1506 19012KT P6SM FEW200 FM141000 23005KT P6SM BKN200 FM141200 24006KT P6SM BKN025 FM141800 26011KT P6SM OVC035 FM150200 25006KT P6SM FEW120